createdAt,value
2023-02-06T00:00:52.651Z,81.71
2023-02-06T00:03:20.250Z,81.68
2023-02-06T00:05:55.196Z,81.30
2023-02-06T00:08:21.888Z,81.34
2023-02-06T00:10:48.651Z,80.48
2023-02-06T00:13:15.288Z,80.00
2023-02-06T00:15:41.985Z,79.91
2023-02-06T00:18:08.811Z,79.94
2023-02-06T00:20:36.169Z,79.59
2023-02-06T00:23:02.805Z,79.62
2023-02-06T00:25:29.426Z,79.82
2023-02-06T00:27:56.093Z,79.77
2023-02-06T00:30:22.740Z,79.55
2023-02-06T00:32:49.469Z,79.98
2023-02-06T00:35:16.123Z,80.54
2023-02-06T00:37:42.697Z,80.90
2023-02-06T00:40:10.138Z,80.64
2023-02-06T00:42:36.867Z,80.00
2023-02-06T00:45:03.649Z,80.02
2023-02-06T00:47:30.230Z,80.11
2023-02-06T00:49:56.881Z,80.55
2023-02-06T00:52:23.516Z,80.45
2023-02-06T00:54:50.115Z,81.07
2023-02-06T00:57:16.733Z,80.35
2023-02-06T00:59:43.330Z,80.29
2023-02-06T01:02:10.339Z,80.90
2023-02-06T01:04:37.110Z,81.37
2023-02-06T01:07:03.686Z,81.39
2023-02-06T01:09:30.306Z,80.90
2023-02-06T01:11:56.965Z,81.34
2023-02-06T01:14:23.714Z,81.30
2023-02-06T01:16:50.327Z,81.27
2023-02-06T01:19:16.990Z,80.82
2023-02-06T01:21:43.570Z,81.29
2023-02-06T01:24:10.191Z,81.06
2023-02-06T01:26:36.761Z,80.58
2023-02-06T01:29:04.053Z,81.78
2023-02-06T01:31:31.154Z,81.62
2023-02-06T01:33:59.658Z,82.47
2023-02-06T01:36:27.350Z,82.09
2023-02-06T01:38:54.227Z,81.21
2023-02-06T01:41:22.930Z,81.05
2023-02-06T01:44:13.195Z,80.88
2023-02-06T01:46:41.492Z,81.77
2023-02-06T01:49:13.772Z,81.98
2023-02-06T01:51:41.157Z,82.04
2023-02-06T01:54:09.245Z,82.22
2023-02-06T01:56:44.622Z,81.70
2023-02-06T01:59:12.463Z,81.37
2023-02-06T02:01:40.466Z,81.70
2023-02-06T02:04:13.348Z,81.89
2023-02-06T02:06:40.746Z,81.23
2023-02-06T02:09:08.188Z,81.36
2023-02-06T02:11:37.990Z,81.13
2023-02-06T02:14:07.293Z,81.08
2023-02-06T02:17:07.105Z,81.82
2023-02-06T02:20:11.005Z,81.57
2023-02-06T02:23:22.577Z,82.49
2023-02-06T02:26:31.002Z,82.37
2023-02-06T02:29:47.120Z,82.99
2023-02-06T02:32:55.521Z,82.97
2023-02-06T02:36:12.929Z,83.00
2023-02-06T02:38:58.971Z,83.24
2023-02-06T02:42:10.335Z,82.24
2023-02-06T02:44:59.390Z,83.54
2023-02-06T02:47:33.259Z,83.86
2023-02-06T02:50:02.369Z,83.82
2023-02-06T02:52:29.282Z,84.30
2023-02-06T02:54:55.921Z,83.69
2023-02-06T02:57:30.555Z,83.97
2023-02-06T03:00:00.444Z,83.69
2023-02-06T03:02:38.150Z,83.87
2023-02-06T03:05:14.848Z,84.54
2023-02-06T03:08:24.811Z,84.28
2023-02-06T03:11:13.340Z,84.40
2023-02-06T03:14:06.422Z,84.42
2023-02-06T03:16:39.576Z,83.44
2023-02-06T03:19:17.013Z,83.38
2023-02-06T03:21:46.296Z,84.09
2023-02-06T03:24:19.672Z,84.23
2023-02-06T03:26:49.474Z,84.45
2023-02-06T03:29:17.769Z,84.53
2023-02-06T03:31:58.673Z,83.39
2023-02-06T03:35:01.221Z,82.95
2023-02-06T03:37:29.431Z,83.23
2023-02-06T03:39:59.067Z,83.00
2023-02-06T03:42:27.111Z,82.37
2023-02-06T03:45:06.416Z,83.11
2023-02-06T03:47:36.383Z,82.68
2023-02-06T03:50:03.541Z,84.61
2023-02-06T03:52:38.441Z,83.03
2023-02-06T03:55:12.589Z,83.50
2023-02-06T03:57:42.176Z,83.70
2023-02-06T04:00:09.821Z,85.13
2023-02-06T04:02:38.372Z,84.91
2023-02-06T04:05:05.577Z,84.39
2023-02-06T04:07:35.091Z,83.86
2023-02-06T04:10:01.735Z,83.77
2023-02-06T04:12:28.351Z,83.63
2023-02-06T04:14:54.975Z,84.03
2023-02-06T04:17:40.730Z,84.28
2023-02-06T04:20:09.278Z,84.95
2023-02-06T04:22:35.928Z,85.00
2023-02-06T04:25:02.573Z,84.15
2023-02-06T04:27:29.227Z,84.67
2023-02-06T04:29:55.860Z,83.83
2023-02-06T04:32:22.536Z,83.64
2023-02-06T04:34:49.312Z,84.40
2023-02-06T04:37:16.109Z,85.13
2023-02-06T04:39:42.759Z,84.57
2023-02-06T04:42:09.618Z,83.57
2023-02-06T04:44:38.408Z,83.27
2023-02-06T04:47:05.523Z,82.56
2023-02-06T04:49:32.136Z,83.15
2023-02-06T04:51:58.750Z,83.16
2023-02-06T04:54:25.558Z,82.93
2023-02-06T04:56:52.170Z,82.60
2023-02-06T04:59:18.790Z,82.34
2023-02-06T05:01:45.476Z,83.03
2023-02-06T05:04:12.187Z,84.33
2023-02-06T05:06:38.785Z,83.88
2023-02-06T05:09:06.376Z,83.39
2023-02-06T05:11:33.080Z,82.97
2023-02-06T05:13:59.698Z,82.99
2023-02-06T05:16:26.572Z,83.80
2023-02-06T05:18:57.042Z,84.17
2023-02-06T05:21:25.148Z,83.99
2023-02-06T05:23:51.999Z,84.35
2023-02-06T05:26:19.099Z,83.41
2023-02-06T05:28:45.777Z,83.57
2023-02-06T05:31:19.663Z,83.76
2023-02-06T05:33:50.382Z,82.66
2023-02-06T05:36:19.456Z,82.67
2023-02-06T05:38:46.715Z,83.18
2023-02-06T05:41:13.337Z,83.75
2023-02-06T05:43:39.899Z,83.65
2023-02-06T05:46:06.708Z,83.60
2023-02-06T05:48:34.863Z,84.26
2023-02-06T05:51:02.252Z,83.90
2023-02-06T05:53:28.960Z,84.10
2023-02-06T05:55:56.115Z,84.37
2023-02-06T05:58:22.755Z,84.76
2023-02-06T06:00:49.402Z,84.32
2023-02-06T06:03:16.063Z,84.21
2023-02-06T06:05:42.691Z,84.93
2023-02-06T06:08:09.305Z,85.01
2023-02-06T06:10:35.944Z,85.01
2023-02-06T06:13:02.573Z,84.95
2023-02-06T06:15:29.257Z,84.79
2023-02-06T06:17:55.903Z,84.96
2023-02-06T06:20:22.908Z,85.08
2023-02-06T06:22:49.546Z,84.95
2023-02-06T06:25:16.377Z,84.48
2023-02-06T06:27:43.013Z,84.47
2023-02-06T06:30:10.946Z,84.27
2023-02-06T06:32:37.539Z,84.46
2023-02-06T06:35:04.433Z,84.92
2023-02-06T06:37:31.011Z,84.85
2023-02-06T06:39:57.653Z,85.10
2023-02-06T06:42:24.269Z,85.08
2023-02-06T06:44:50.894Z,85.82
2023-02-06T06:47:17.662Z,86.33
2023-02-06T06:49:44.450Z,86.63
2023-02-06T06:52:23.054Z,86.75
2023-02-06T06:54:51.955Z,86.47
2023-02-06T06:57:18.902Z,86.30
2023-02-06T06:59:45.509Z,85.66
2023-02-06T07:02:12.191Z,85.59
2023-02-06T07:04:38.983Z,85.90
2023-02-06T07:07:06.189Z,85.60
2023-02-06T07:09:32.822Z,86.40
2023-02-06T07:11:59.461Z,86.14
2023-02-06T07:14:26.142Z,86.02
2023-02-06T07:16:53.013Z,86.18
2023-02-06T07:19:19.617Z,85.97
2023-02-06T07:21:46.272Z,85.48
2023-02-06T07:24:12.877Z,85.63
2023-02-06T07:26:41.482Z,85.57
2023-02-06T07:29:08.115Z,85.28
2023-02-06T07:31:34.917Z,84.91
2023-02-06T07:34:02.333Z,85.88
2023-02-06T07:36:29.032Z,85.27
2023-02-06T07:38:55.850Z,85.18
2023-02-06T07:41:22.455Z,85.48
2023-02-06T07:43:49.085Z,84.88
2023-02-06T07:46:15.914Z,84.83
2023-02-06T07:48:42.580Z,84.38
2023-02-06T07:51:09.568Z,84.38
2023-02-06T07:53:37.273Z,84.62
2023-02-06T07:56:14.940Z,84.30
2023-02-06T07:58:41.640Z,84.43
2023-02-06T08:01:09.000Z,84.74
2023-02-06T08:03:35.808Z,84.40
2023-02-06T08:06:08.458Z,83.51
2023-02-06T08:08:35.174Z,84.79
2023-02-06T08:11:06.249Z,84.85
2023-02-06T08:13:32.878Z,84.63
2023-02-06T08:16:02.803Z,84.43
2023-02-06T08:18:29.479Z,84.33
2023-02-06T08:21:04.218Z,84.17
2023-02-06T08:23:31.611Z,83.22
2023-02-06T08:26:13.622Z,83.60
2023-02-06T08:28:42.271Z,84.74
2023-02-06T08:31:37.459Z,84.92
2023-02-06T08:34:05.608Z,83.79
2023-02-06T08:36:32.713Z,83.79
2023-02-06T08:39:00.690Z,83.96
2023-02-06T08:41:39.558Z,83.39
2023-02-06T08:44:12.305Z,83.84
2023-02-06T08:46:39.869Z,84.20
2023-02-06T08:49:11.659Z,83.71
2023-02-06T08:51:38.346Z,82.06
2023-02-06T08:54:08.536Z,81.91
2023-02-06T08:56:36.432Z,82.09
2023-02-06T08:59:04.261Z,83.50
2023-02-06T09:01:33.301Z,82.82
2023-02-06T09:04:04.749Z,83.98
2023-02-06T09:06:31.360Z,83.88
2023-02-06T09:08:58.072Z,83.37
2023-02-06T09:11:26.365Z,83.91
2023-02-06T09:13:55.921Z,84.18
2023-02-06T09:16:22.904Z,83.89
2023-02-06T09:18:52.214Z,82.55
2023-02-06T09:21:22.454Z,82.68
2023-02-06T09:23:55.605Z,81.26
2023-02-06T09:26:24.630Z,81.67
2023-02-06T09:28:57.167Z,82.25
2023-02-06T09:31:25.040Z,83.07
2023-02-06T09:33:52.014Z,81.96
2023-02-06T09:36:20.684Z,81.03
2023-02-06T09:38:50.070Z,80.04
2023-02-06T09:41:47.751Z,80.87
2023-02-06T09:44:38.985Z,82.21
2023-02-06T09:47:24.068Z,80.07
2023-02-06T09:49:54.610Z,79.33
2023-02-06T09:52:59.848Z,79.96
2023-02-06T09:55:52.431Z,81.38
2023-02-06T09:58:44.141Z,79.63
2023-02-06T10:01:29.698Z,79.57
2023-02-06T10:04:34.055Z,80.08
2023-02-06T10:07:43.650Z,80.45
2023-02-06T10:10:22.518Z,80.86
2023-02-06T10:13:03.392Z,79.60
2023-02-06T10:15:36.490Z,79.09
2023-02-06T10:18:11.630Z,78.92
2023-02-06T10:20:52.549Z,77.37
2023-02-06T10:23:32.408Z,78.42
2023-02-06T10:26:18.112Z,78.46
2023-02-06T10:28:49.244Z,78.70
2023-02-06T10:32:02.295Z,78.02
2023-02-06T10:34:58.693Z,77.58
2023-02-06T10:37:47.780Z,77.08
2023-02-06T10:40:53.075Z,77.05
2023-02-06T10:43:59.156Z,77.63
2023-02-06T10:46:43.690Z,76.64
2023-02-06T10:49:33.842Z,77.43
2023-02-06T10:52:22.155Z,76.51
2023-02-06T10:54:55.683Z,76.56
2023-02-06T10:57:28.554Z,75.84
2023-02-06T11:00:00.710Z,75.90
2023-02-06T11:02:52.823Z,74.43
2023-02-06T11:05:30.936Z,74.19
2023-02-06T11:08:09.578Z,74.99
2023-02-06T11:10:36.793Z,75.19
2023-02-06T11:13:30.573Z,75.11
2023-02-06T11:16:13.636Z,74.94
2023-02-06T11:18:43.336Z,76.41
2023-02-06T11:21:12.827Z,77.80
2023-02-06T11:23:40.551Z,75.41
2023-02-06T11:26:14.591Z,73.76
2023-02-06T11:28:54.187Z,72.56
2023-02-06T11:31:38.475Z,72.18
2023-02-06T11:34:05.371Z,73.99
2023-02-06T11:36:34.787Z,74.34
2023-02-06T11:39:26.208Z,73.08
2023-02-06T11:42:01.932Z,74.12
2023-02-06T11:44:37.727Z,74.28
2023-02-06T11:47:33.119Z,75.13
2023-02-06T11:50:36.304Z,75.10
2023-02-06T11:53:17.458Z,74.44
2023-02-06T11:55:46.026Z,74.78
2023-02-06T11:58:24.854Z,71.69
2023-02-06T12:01:04.777Z,71.14
2023-02-06T12:03:43.780Z,72.71
2023-02-06T12:06:16.862Z,73.27
2023-02-06T12:08:54.165Z,73.79
2023-02-06T12:11:29.334Z,72.42
2023-02-06T12:14:01.757Z,73.74
2023-02-06T12:16:30.241Z,74.37
2023-02-06T12:18:59.826Z,73.67
2023-02-06T12:21:48.058Z,72.19
2023-02-06T12:24:36.199Z,73.07
2023-02-06T12:27:10.970Z,73.03
2023-02-06T12:29:43.370Z,73.25
2023-02-06T12:32:23.132Z,71.32
2023-02-06T12:34:57.347Z,71.11
2023-02-06T12:37:44.143Z,72.23
2023-02-06T12:40:53.976Z,73.40
2023-02-06T12:43:20.710Z,72.04
2023-02-06T12:46:17.334Z,72.26
2023-02-06T12:49:19.988Z,72.89
2023-02-06T12:51:55.932Z,71.68
2023-02-06T12:54:29.026Z,72.37
2023-02-06T12:57:12.608Z,72.30
2023-02-06T13:00:09.610Z,72.22
2023-02-06T13:03:28.739Z,71.45
2023-02-06T13:06:02.992Z,71.68
2023-02-06T13:08:46.182Z,72.54
2023-02-06T13:11:39.053Z,71.36
2023-02-06T13:14:17.714Z,71.80
2023-02-06T13:17:16.616Z,72.10
2023-02-06T13:20:06.055Z,72.52
2023-02-06T13:23:16.621Z,72.47
2023-02-06T13:25:49.078Z,72.55
2023-02-06T13:28:41.477Z,72.76
2023-02-06T13:31:22.551Z,71.91
2023-02-06T13:33:58.670Z,72.68
2023-02-06T13:36:44.068Z,72.54
2023-02-06T13:39:25.498Z,71.52
2023-02-06T13:41:53.397Z,72.07
2023-02-06T13:44:38.892Z,71.40
2023-02-06T13:47:48.400Z,71.22
2023-02-06T13:50:46.872Z,71.03
2023-02-06T13:53:50.185Z,70.23
2023-02-06T13:57:13.514Z,70.20
2023-02-06T14:00:22.433Z,69.90
2023-02-06T14:02:56.927Z,68.24
2023-02-06T14:05:35.406Z,69.00
2023-02-06T14:08:26.941Z,66.74
2023-02-06T14:11:10.249Z,67.34
2023-02-06T14:14:24.852Z,68.61
2023-02-06T14:17:21.994Z,69.25
2023-02-06T14:20:33.370Z,68.85
2023-02-06T14:23:14.662Z,69.83
2023-02-06T14:29:34.732Z,66.06
2023-02-06T14:32:27.831Z,65.17
2023-02-06T14:35:32.068Z,66.93
2023-02-06T14:38:35.127Z,66.92
2023-02-06T14:41:03.098Z,68.29
2023-02-06T14:43:34.530Z,68.57
2023-02-06T14:46:07.993Z,69.01
2023-02-06T14:48:57.010Z,70.12
2023-02-06T14:51:34.655Z,68.38
2023-02-06T14:54:28.028Z,67.95
2023-02-06T14:56:59.758Z,69.12
2023-02-06T14:59:26.752Z,71.02
2023-02-06T15:01:55.317Z,70.28
2023-02-06T15:04:28.145Z,68.62
2023-02-06T15:07:03.528Z,70.97
2023-02-06T15:09:35.896Z,70.92
2023-02-06T15:12:26.563Z,70.58
2023-02-06T15:15:04.574Z,70.26
2023-02-06T15:17:32.185Z,70.81
2023-02-06T15:20:40.915Z,70.68
2023-02-06T15:23:39.797Z,71.09
2023-02-06T15:26:53.344Z,71.54
2023-02-06T15:29:23.026Z,71.32
2023-02-06T15:31:53.071Z,71.52
2023-02-06T15:34:22.932Z,72.00
2023-02-06T15:36:50.364Z,71.88
2023-02-06T15:39:18.147Z,72.12
2023-02-06T15:41:47.275Z,72.05
2023-02-06T15:44:31.588Z,72.74
2023-02-06T15:46:58.649Z,73.14
2023-02-06T15:49:41.441Z,73.84
2023-02-06T15:52:09.118Z,72.58
2023-02-06T15:54:35.827Z,73.54
2023-02-06T15:57:38.553Z,74.22
2023-02-06T16:00:09.604Z,73.53
2023-02-06T16:02:39.643Z,74.32
2023-02-06T16:05:08.672Z,73.73
2023-02-06T16:07:36.332Z,74.92
2023-02-06T16:10:10.302Z,75.02
2023-02-06T16:12:45.652Z,76.18
2023-02-06T16:15:37.844Z,75.39
2023-02-06T16:18:33.326Z,75.30
2023-02-06T16:21:32.507Z,75.72
2023-02-06T16:24:14.521Z,75.60
2023-02-06T16:26:52.336Z,75.74
2023-02-06T16:29:31.894Z,77.10
2023-02-06T16:32:12.446Z,76.26
2023-02-06T16:34:41.616Z,76.85
2023-02-06T16:37:17.401Z,76.96
2023-02-06T16:39:45.705Z,78.18
2023-02-06T16:42:24.472Z,78.14
2023-02-06T16:44:59.379Z,78.86
2023-02-06T16:47:26.389Z,78.67
2023-02-06T16:49:53.085Z,79.14
2023-02-06T16:52:47.106Z,78.96
2023-02-06T16:55:23.560Z,79.04
2023-02-06T16:57:54.071Z,79.82
2023-02-06T17:00:28.934Z,79.16
2023-02-06T17:02:57.224Z,79.56
2023-02-06T17:05:26.876Z,79.27
2023-02-06T17:07:53.989Z,79.46
2023-02-06T17:10:24.263Z,79.93
2023-02-06T17:12:50.972Z,79.91
2023-02-06T17:15:18.833Z,79.16
2023-02-06T17:17:46.181Z,79.44
2023-02-06T17:20:32.907Z,80.16
2023-02-06T17:22:59.997Z,80.21
2023-02-06T17:25:26.823Z,79.48
2023-02-06T17:27:53.913Z,80.33
2023-02-06T17:30:22.665Z,80.83
2023-02-06T17:32:49.328Z,79.08
2023-02-06T17:35:16.931Z,78.95
2023-02-06T17:37:43.770Z,78.78
2023-02-06T17:40:22.911Z,79.36
2023-02-06T17:42:49.616Z,79.00
2023-02-06T17:45:16.564Z,78.39
2023-02-06T17:47:43.708Z,79.39
2023-02-06T17:50:14.235Z,78.75
2023-02-06T17:52:41.343Z,79.56
2023-02-06T17:55:08.618Z,80.24
2023-02-06T17:57:36.426Z,79.89
2023-02-06T18:00:06.121Z,80.81
2023-02-06T18:02:32.930Z,80.34
2023-02-06T18:05:00.036Z,80.04
2023-02-06T18:07:27.503Z,80.64
2023-02-06T18:09:54.276Z,79.51
2023-02-06T18:12:21.167Z,79.89
2023-02-06T18:14:49.945Z,80.16
2023-02-06T18:17:18.845Z,80.64
2023-02-06T18:19:48.213Z,80.58
2023-02-06T18:22:21.494Z,80.77
2023-02-06T18:24:49.841Z,81.23
2023-02-06T18:27:17.692Z,81.52
2023-02-06T18:29:50.018Z,82.07
2023-02-06T18:32:18.644Z,81.81
2023-02-06T18:34:45.638Z,81.53
2023-02-06T18:37:12.361Z,82.11
2023-02-06T18:39:39.535Z,81.75
2023-02-06T18:42:25.293Z,81.86
2023-02-06T18:44:51.910Z,81.03
2023-02-06T18:47:19.745Z,80.63
2023-02-06T18:49:46.644Z,80.41
2023-02-06T18:52:13.302Z,79.96
2023-02-06T18:54:40.178Z,79.24
2023-02-06T18:57:07.090Z,77.93
2023-02-06T18:59:34.556Z,78.45
2023-02-06T19:02:01.453Z,78.37
2023-02-06T19:04:28.248Z,78.45
2023-02-06T19:06:54.978Z,78.67
2023-02-06T19:09:21.635Z,79.34
2023-02-06T19:11:48.746Z,79.96
2023-02-06T19:14:17.139Z,79.39
2023-02-06T19:16:47.302Z,79.46
2023-02-06T19:19:14.907Z,79.14
2023-02-06T19:21:43.446Z,80.21
2023-02-06T19:24:15.272Z,79.99
2023-02-06T19:26:43.243Z,80.37
2023-02-06T19:29:13.209Z,79.57
2023-02-06T19:31:40.674Z,78.23
2023-02-06T19:34:07.334Z,77.15
2023-02-06T19:36:34.582Z,76.35
2023-02-06T19:39:05.188Z,77.08
2023-02-06T19:41:34.222Z,77.73
2023-02-06T19:44:12.239Z,78.54
2023-02-06T19:46:39.667Z,78.11
2023-02-06T19:49:08.733Z,78.78
2023-02-06T19:51:39.731Z,78.72
2023-02-06T19:54:06.494Z,78.78
2023-02-06T19:56:40.230Z,77.95
2023-02-06T19:59:18.049Z,78.48
2023-02-06T20:01:47.199Z,78.92
2023-02-06T20:04:14.313Z,78.70
2023-02-06T20:06:43.976Z,78.07
2023-02-06T20:09:12.757Z,77.93
2023-02-06T20:11:40.586Z,78.81
2023-02-06T20:14:07.705Z,78.39
2023-02-06T20:16:37.846Z,80.07
2023-02-06T20:19:21.899Z,79.86
2023-02-06T20:21:51.643Z,80.11
2023-02-06T20:24:22.126Z,80.83
2023-02-06T20:26:58.323Z,80.36
2023-02-06T20:29:27.975Z,81.39
2023-02-06T20:31:55.455Z,81.96
2023-02-06T20:34:22.597Z,82.84
2023-02-06T20:36:50.867Z,82.47
2023-02-06T20:39:18.816Z,83.17
2023-02-06T20:41:46.124Z,83.23
2023-02-06T20:44:13.903Z,83.45
2023-02-06T20:46:41.080Z,83.35
2023-02-06T20:49:13.633Z,83.12
2023-02-06T20:51:40.656Z,82.96
2023-02-06T20:54:07.556Z,83.27
2023-02-06T20:56:34.451Z,83.89
2023-02-06T20:59:01.329Z,83.82
2023-02-06T21:01:30.457Z,84.46
2023-02-06T21:04:02.927Z,83.52
2023-02-06T21:06:30.532Z,83.25
2023-02-06T21:09:00.120Z,83.16
2023-02-06T21:11:34.033Z,83.18
2023-02-06T21:14:03.697Z,83.94
2023-02-06T21:16:31.293Z,83.83
2023-02-06T21:19:00.132Z,84.75
2023-02-06T21:21:27.088Z,84.62
2023-02-06T21:23:57.235Z,84.72
2023-02-06T21:26:25.502Z,84.20
2023-02-06T21:28:53.177Z,84.46
2023-02-06T21:31:23.961Z,84.65
2023-02-06T21:33:52.072Z,84.04
2023-02-06T21:36:20.994Z,83.73
2023-02-06T21:38:47.802Z,83.97
2023-02-06T21:41:17.161Z,84.18
2023-02-06T21:43:44.186Z,83.54
2023-02-06T21:46:11.874Z,83.48
2023-02-06T21:48:39.004Z,83.57
2023-02-06T21:51:15.302Z,83.32
2023-02-06T21:53:43.418Z,84.46
2023-02-06T21:56:15.168Z,84.53
2023-02-06T21:58:41.943Z,85.03
2023-02-06T22:01:17.090Z,85.10
2023-02-06T22:03:45.038Z,83.91
2023-02-06T22:06:13.036Z,83.29
2023-02-06T22:08:42.610Z,83.11
2023-02-06T22:11:18.392Z,83.49
2023-02-06T22:13:45.792Z,83.90
2023-02-06T22:16:13.876Z,83.93
2023-02-06T22:18:41.270Z,85.23
2023-02-06T22:21:12.760Z,84.74
2023-02-06T22:23:40.405Z,84.31
2023-02-06T22:26:08.904Z,84.25
2023-02-06T22:28:35.789Z,83.67
2023-02-06T22:31:11.054Z,84.10
2023-02-06T22:33:37.970Z,83.80
2023-02-06T22:36:13.803Z,84.38
2023-02-06T22:38:41.584Z,84.25
2023-02-06T22:41:12.007Z,84.52
2023-02-06T22:43:39.672Z,84.12
2023-02-06T22:46:07.471Z,84.12
2023-02-06T22:48:35.132Z,84.23
2023-02-06T22:51:06.676Z,83.35
2023-02-06T22:53:33.374Z,82.73
2023-02-06T22:56:20.813Z,83.44
2023-02-06T22:58:48.441Z,82.88
2023-02-06T23:01:16.816Z,82.77
2023-02-06T23:03:43.427Z,83.26
2023-02-06T23:06:11.887Z,82.01
2023-02-06T23:08:40.005Z,82.09
2023-02-06T23:11:07.939Z,83.17
2023-02-06T23:13:34.770Z,82.84
2023-02-06T23:16:02.330Z,83.10
2023-02-06T23:18:29.591Z,83.23
2023-02-06T23:21:01.343Z,82.35
2023-02-06T23:23:28.629Z,83.41
2023-02-06T23:25:55.930Z,82.91
2023-02-06T23:28:23.719Z,82.08
2023-02-06T23:30:50.764Z,82.43
2023-02-06T23:33:18.477Z,83.20
2023-02-06T23:35:45.577Z,83.29
2023-02-06T23:38:12.520Z,83.10
2023-02-06T23:40:39.786Z,82.69
2023-02-06T23:43:07.181Z,82.19
2023-02-06T23:45:34.531Z,81.32
2023-02-06T23:48:01.112Z,81.66
2023-02-06T23:50:27.944Z,82.23
2023-02-06T23:52:54.677Z,81.74
2023-02-06T23:55:21.518Z,82.29
2023-02-06T23:57:48.166Z,82.02
